RYR90RV EPWR-LIPE
Flight info
| Callsign | RYR90RV |
|---|---|
| Flight time | 1h 29m |
| Altitude | 18000 |
| Route | ULGIL T707 TOMTI/N0437F360 DCT BUDEX DCT DETSA/N0436F350 DCT MOBDO DCT LEDKO DCT ADOSA M738 BENUS |
| Aircraft | B738/M-SDE3FGILRWY/SB1 |
Departure
| Time | 2026-05-04 16:19 |
|---|---|
| Airport | Copernicus Wrocław Airport (EPWR) |
Arrival
| Time | 2026-05-04 17:49 |
|---|---|
| Airport | Bologna Guglielmo Marconi Airport (LIPE) |
| Time | Latitude | Longitude | Altitude | Speed | Heading |
|---|---|---|---|---|---|
| 2026-05-04 15:53 | 51.10848 | 16.88043 | 404 ft | 0 kts | 28° |
| 2026-05-04 16:09 | 51.10809 | 16.88008 | 405 ft | 4 kts | 13° |
| 2026-05-04 16:10 | 51.10776 | 16.88040 | 403 ft | 1 kts | 295° |
| 2026-05-04 16:11 | 51.10774 | 16.88045 | 403 ft | 0 kts | 295° |
| 2026-05-04 16:13 | 51.10809 | 16.87932 | 407 ft | 11 kts | 296° |
| 2026-05-04 16:13 | 51.10884 | 16.87686 | 403 ft | 14 kts | 295° |
| 2026-05-04 16:14 | 51.10934 | 16.87412 | 406 ft | 11 kts | 213° |
| 2026-05-04 16:14 | 51.10777 | 16.87289 | 408 ft | 0 kts | 205° |
| 2026-05-04 16:15 | 51.10768 | 16.87283 | 408 ft | 0 kts | 205° |
| 2026-05-04 16:16 | 51.10749 | 16.87268 | 407 ft | 2 kts | 205° |
| 2026-05-04 16:16 | 51.10726 | 16.87094 | 404 ft | 15 kts | 298° |
| 2026-05-04 16:17 | 51.10824 | 16.86672 | 407 ft | 13 kts | 274° |
| 2026-05-04 16:18 | 51.10865 | 16.86639 | 406 ft | 0 kts | 116° |
| 2026-05-04 16:19 | 51.10282 | 16.88538 | 408 ft | 161 kts | 117° |
| 2026-05-04 16:19 | 51.09235 | 16.91911 | 1784 ft | 173 kts | 115° |
| 2026-05-04 16:20 | 51.07070 | 16.97541 | 3384 ft | 224 kts | 154° |
| 2026-05-04 16:20 | 51.04019 | 16.97155 | 4917 ft | 231 kts | 205° |
| 2026-05-04 16:21 | 50.99663 | 16.93682 | 7556 ft | 236 kts | 208° |
| 2026-05-04 16:22 | 50.96718 | 16.91376 | 8844 ft | 235 kts | 208° |
| 2026-05-04 16:22 | 50.92467 | 16.87506 | 11144 ft | 238 kts | 234° |
| 2026-05-04 16:23 | 50.92498 | 16.79843 | 13624 ft | 257 kts | 290° |
| 2026-05-04 16:24 | 50.95771 | 16.69420 | 16779 ft | 270 kts | 292° |
| 2026-05-04 16:25 | 50.97425 | 16.64010 | 18242 ft | 282 kts | 293° |
| 2026-05-04 16:26 | 51.01219 | 16.51523 | 20288 ft | 325 kts | 293° |
| 2026-05-04 16:26 | 51.02781 | 16.40821 | 21399 ft | 361 kts | 274° |
| 2026-05-04 16:27 | 51.03560 | 16.32579 | 21940 ft | 390 kts | 284° |
| 2026-05-04 16:28 | 51.06207 | 16.20196 | 23802 ft | 398 kts | 286° |
| 2026-05-04 16:28 | 51.08793 | 16.07533 | 25351 ft | 404 kts | 286° |
| 2026-05-04 16:29 | 51.07662 | 15.90136 | 27241 ft | 409 kts | 252° |
| 2026-05-04 16:30 | 51.04969 | 15.77109 | 28572 ft | 416 kts | 252° |
| 2026-05-04 16:31 | 51.03202 | 15.68354 | 29479 ft | 418 kts | 252° |
| 2026-05-04 16:31 | 51.00551 | 15.55164 | 30926 ft | 414 kts | 252° |
| 2026-05-04 16:32 | 50.97926 | 15.42181 | 32189 ft | 412 kts | 252° |
| 2026-05-04 16:33 | 50.95927 | 15.33742 | 33159 ft | 410 kts | 238° |
| 2026-05-04 16:33 | 50.91733 | 15.27666 | 34012 ft | 417 kts | 211° |
| 2026-05-04 16:34 | 50.86231 | 15.24551 | 34685 ft | 421 kts | 201° |
| 2026-05-04 16:34 | 50.83417 | 15.23212 | 34967 ft | 422 kts | 200° |
| 2026-05-04 16:35 | 50.74991 | 15.19204 | 35917 ft | 422 kts | 200° |
| 2026-05-04 16:35 | 50.66493 | 15.15048 | 35947 ft | 426 kts | 201° |
| 2026-05-04 16:36 | 50.58145 | 15.10949 | 35952 ft | 419 kts | 200° |
| 2026-05-04 16:37 | 50.49781 | 15.06849 | 35958 ft | 420 kts | 200° |
| 2026-05-04 16:38 | 50.38588 | 15.01391 | 35963 ft | 422 kts | 200° |
| 2026-05-04 16:39 | 50.24547 | 14.94584 | 35968 ft | 424 kts | 200° |
| 2026-05-04 16:40 | 50.13240 | 14.89133 | 35959 ft | 426 kts | 200° |
| 2026-05-04 16:41 | 49.99085 | 14.82347 | 35961 ft | 426 kts | 200° |
| 2026-05-04 16:43 | 49.85001 | 14.75637 | 35965 ft | 425 kts | 200° |
| 2026-05-04 16:43 | 49.76515 | 14.71613 | 35964 ft | 425 kts | 200° |
| 2026-05-04 16:45 | 49.59552 | 14.63614 | 35959 ft | 425 kts | 200° |
| 2026-05-04 16:46 | 49.45438 | 14.57002 | 35953 ft | 423 kts | 200° |
| 2026-05-04 16:47 | 49.34173 | 14.51753 | 35961 ft | 423 kts | 200° |
| 2026-05-04 16:48 | 49.22907 | 14.46529 | 35939 ft | 423 kts | 200° |
| 2026-05-04 16:49 | 49.11642 | 14.41330 | 35948 ft | 423 kts | 200° |
| 2026-05-04 16:50 | 49.00380 | 14.36155 | 35943 ft | 423 kts | 200° |
| 2026-05-04 16:51 | 48.94852 | 14.33470 | 36724 ft | 399 kts | 204° |
| 2026-05-04 16:51 | 48.92282 | 14.31852 | 36704 ft | 407 kts | 209° |
| 2026-05-04 16:51 | 48.87448 | 14.27075 | 36205 ft | 423 kts | 218° |
| 2026-05-04 16:52 | 48.82735 | 14.21841 | 35942 ft | 415 kts | 218° |
| 2026-05-04 16:53 | 48.75625 | 14.14409 | 35938 ft | 416 kts | 216° |
| 2026-05-04 16:54 | 48.66741 | 14.05525 | 35925 ft | 419 kts | 216° |
| 2026-05-04 16:55 | 48.52074 | 13.91010 | 35909 ft | 420 kts | 215° |
| 2026-05-04 16:56 | 48.39941 | 13.79071 | 35896 ft | 417 kts | 214° |
| 2026-05-04 16:57 | 48.32680 | 13.71959 | 35896 ft | 416 kts | 214° |
| 2026-05-04 16:58 | 48.23010 | 13.62524 | 35898 ft | 415 kts | 214° |
| 2026-05-04 17:00 | 48.08440 | 13.48391 | 35904 ft | 419 kts | 214° |
| 2026-05-04 17:01 | 47.96163 | 13.36557 | 35899 ft | 421 kts | 214° |
| 2026-05-04 17:02 | 47.86330 | 13.27128 | 35903 ft | 422 kts | 214° |
| 2026-05-04 17:03 | 47.78926 | 13.20057 | 35911 ft | 421 kts | 214° |
| 2026-05-04 17:03 | 47.71538 | 13.13024 | 35927 ft | 419 kts | 214° |
| 2026-05-04 17:04 | 47.61850 | 13.03840 | 35909 ft | 414 kts | 214° |
| 2026-05-04 17:05 | 47.52130 | 12.94665 | 35922 ft | 415 kts | 214° |
| 2026-05-04 17:06 | 47.44822 | 12.87794 | 35933 ft | 416 kts | 213° |
| 2026-05-04 17:07 | 47.38309 | 12.81690 | 35943 ft | 417 kts | 213° |
| 2026-05-04 17:07 | 47.32613 | 12.76366 | 35968 ft | 417 kts | 213° |
| 2026-05-04 17:08 | 47.25266 | 12.69520 | 35973 ft | 417 kts | 213° |
| 2026-05-04 17:09 | 47.20364 | 12.64965 | 35976 ft | 417 kts | 213° |
| 2026-05-04 17:09 | 47.15487 | 12.60441 | 35986 ft | 417 kts | 213° |
| 2026-05-04 17:10 | 47.03252 | 12.49141 | 35637 ft | 408 kts | 213° |
| 2026-05-04 17:11 | 47.00880 | 12.46958 | 35401 ft | 402 kts | 213° |
| 2026-05-04 17:11 | 46.98531 | 12.44798 | 35157 ft | 397 kts | 213° |
| 2026-05-04 17:11 | 46.93920 | 12.40563 | 34696 ft | 391 kts | 213° |
| 2026-05-04 17:12 | 46.91620 | 12.38453 | 34459 ft | 389 kts | 213° |
| 2026-05-04 17:12 | 46.87075 | 12.34290 | 33977 ft | 385 kts | 213° |
| 2026-05-04 17:13 | 46.80303 | 12.28073 | 33216 ft | 382 kts | 215° |
| 2026-05-04 17:14 | 46.74216 | 12.20643 | 33108 ft | 381 kts | 221° |
| 2026-05-04 17:14 | 46.72222 | 12.18111 | 33021 ft | 381 kts | 221° |
| 2026-05-04 17:15 | 46.66199 | 12.10566 | 33041 ft | 381 kts | 221° |
| 2026-05-04 17:16 | 46.58138 | 12.00574 | 33038 ft | 383 kts | 221° |
| 2026-05-04 17:17 | 46.50023 | 11.90569 | 33054 ft | 383 kts | 221° |
| 2026-05-04 17:18 | 46.41935 | 11.80633 | 33047 ft | 382 kts | 221° |
| 2026-05-04 17:19 | 46.33786 | 11.70780 | 33080 ft | 381 kts | 221° |
| 2026-05-04 17:20 | 46.25715 | 11.61059 | 33057 ft | 361 kts | 221° |
| 2026-05-04 17:20 | 46.22011 | 11.56611 | 32942 ft | 337 kts | 221° |
| 2026-05-04 17:20 | 46.20217 | 11.54457 | 32588 ft | 335 kts | 220° |
| 2026-05-04 17:21 | 46.16495 | 11.49992 | 30715 ft | 365 kts | 219° |
| 2026-05-04 17:21 | 46.12585 | 11.45313 | 29784 ft | 364 kts | 219° |
| 2026-05-04 17:22 | 46.10645 | 11.42995 | 29420 ft | 360 kts | 219° |
| 2026-05-04 17:22 | 46.08754 | 11.40738 | 29040 ft | 357 kts | 219° |
| 2026-05-04 17:23 | 46.03096 | 11.33997 | 27975 ft | 348 kts | 219° |
| 2026-05-04 17:23 | 46.01235 | 11.31785 | 27609 ft | 346 kts | 219° |
| 2026-05-04 17:23 | 45.97798 | 11.27702 | 26966 ft | 342 kts | 219° |
| 2026-05-04 17:24 | 45.95972 | 11.25535 | 26619 ft | 340 kts | 219° |
| 2026-05-04 17:24 | 45.90557 | 11.19122 | 25584 ft | 336 kts | 219° |
| 2026-05-04 17:25 | 45.88759 | 11.16995 | 25241 ft | 335 kts | 220° |
| 2026-05-04 17:25 | 45.85179 | 11.12769 | 24551 ft | 332 kts | 220° |
| 2026-05-04 17:26 | 45.81415 | 11.08993 | 23876 ft | 332 kts | 206° |
| 2026-05-04 17:26 | 45.74721 | 11.06276 | 22595 ft | 335 kts | 195° |
| 2026-05-04 17:27 | 45.70211 | 11.04689 | 21881 ft | 332 kts | 195° |
| 2026-05-04 17:27 | 45.65748 | 11.03135 | 21199 ft | 329 kts | 190° |
| 2026-05-04 17:28 | 45.61184 | 11.03280 | 20538 ft | 330 kts | 173° |
| 2026-05-04 17:29 | 45.54469 | 11.04980 | 19552 ft | 327 kts | 172° |
| 2026-05-04 17:29 | 45.47767 | 11.06655 | 18569 ft | 325 kts | 172° |
| 2026-05-04 17:30 | 45.41099 | 11.08283 | 17515 ft | 322 kts | 172° |
| 2026-05-04 17:31 | 45.36739 | 11.09343 | 16875 ft | 318 kts | 172° |
| 2026-05-04 17:31 | 45.30275 | 11.10910 | 15955 ft | 311 kts | 172° |
| 2026-05-04 17:32 | 45.26032 | 11.11936 | 15333 ft | 307 kts | 171° |
| 2026-05-04 17:33 | 45.19791 | 11.13443 | 14413 ft | 302 kts | 171° |
| 2026-05-04 17:33 | 45.17726 | 11.13940 | 14116 ft | 300 kts | 171° |
| 2026-05-04 17:34 | 45.11639 | 11.15401 | 13245 ft | 293 kts | 171° |
| 2026-05-04 17:34 | 45.09644 | 11.15878 | 12943 ft | 291 kts | 171° |
| 2026-05-04 17:35 | 45.03842 | 11.17267 | 12003 ft | 270 kts | 171° |
| 2026-05-04 17:35 | 45.00260 | 11.18122 | 11441 ft | 256 kts | 171° |
| 2026-05-04 17:35 | 44.98510 | 11.18540 | 11223 ft | 254 kts | 171° |
| 2026-05-04 17:36 | 44.96765 | 11.18956 | 10959 ft | 256 kts | 171° |
| 2026-05-04 17:36 | 44.94966 | 11.19384 | 10691 ft | 267 kts | 171° |
| 2026-05-04 17:36 | 44.93128 | 11.19821 | 10404 ft | 268 kts | 171° |
| 2026-05-04 17:36 | 44.91333 | 11.20249 | 10237 ft | 253 kts | 171° |
| 2026-05-04 17:37 | 44.89641 | 11.20650 | 10133 ft | 242 kts | 172° |
| 2026-05-04 17:37 | 44.87971 | 11.21040 | 9883 ft | 248 kts | 172° |
| 2026-05-04 17:37 | 44.86248 | 11.21442 | 9631 ft | 255 kts | 171° |
| 2026-05-04 17:37 | 44.84501 | 11.21850 | 9349 ft | 261 kts | 171° |
| 2026-05-04 17:38 | 44.82709 | 11.22269 | 9055 ft | 260 kts | 171° |
| 2026-05-04 17:38 | 44.80932 | 11.22684 | 8767 ft | 258 kts | 171° |
| 2026-05-04 17:38 | 44.79170 | 11.23096 | 8485 ft | 256 kts | 171° |
| 2026-05-04 17:38 | 44.77411 | 11.23383 | 8190 ft | 254 kts | 183° |
| 2026-05-04 17:39 | 44.74026 | 11.22090 | 7673 ft | 251 kts | 195° |
| 2026-05-04 17:39 | 44.72364 | 11.21393 | 7398 ft | 250 kts | 195° |
| 2026-05-04 17:39 | 44.70863 | 11.20377 | 7287 ft | 244 kts | 220° |
| 2026-05-04 17:40 | 44.69909 | 11.18463 | 7160 ft | 242 kts | 247° |
| 2026-05-04 17:40 | 44.69729 | 11.17599 | 7062 ft | 243 kts | 257° |
| 2026-05-04 17:40 | 44.69735 | 11.15241 | 6842 ft | 245 kts | 281° |
| 2026-05-04 17:41 | 44.70343 | 11.13013 | 6624 ft | 244 kts | 294° |
| 2026-05-04 17:41 | 44.71107 | 11.10876 | 6340 ft | 246 kts | 296° |
| 2026-05-04 17:41 | 44.71909 | 11.08757 | 6076 ft | 245 kts | 297° |
| 2026-05-04 17:41 | 44.72700 | 11.06676 | 5820 ft | 244 kts | 297° |
| 2026-05-04 17:42 | 44.73377 | 11.04507 | 5558 ft | 242 kts | 279° |
| 2026-05-04 17:42 | 44.73193 | 11.02213 | 5329 ft | 236 kts | 244° |
| 2026-05-04 17:42 | 44.72199 | 11.00427 | 5110 ft | 233 kts | 218° |
| 2026-05-04 17:42 | 44.70808 | 10.99249 | 4960 ft | 236 kts | 205° |
| 2026-05-04 17:43 | 44.69310 | 10.98226 | 4832 ft | 242 kts | 205° |
| 2026-05-04 17:43 | 44.67798 | 10.97232 | 4699 ft | 236 kts | 198° |
| 2026-05-04 17:43 | 44.66221 | 10.97094 | 4582 ft | 225 kts | 165° |
| 2026-05-04 17:43 | 44.64850 | 10.98097 | 4340 ft | 224 kts | 138° |
| 2026-05-04 17:44 | 44.63924 | 10.99779 | 4123 ft | 218 kts | 117° |
| 2026-05-04 17:44 | 44.63266 | 11.01630 | 3910 ft | 207 kts | 115° |
| 2026-05-04 17:44 | 44.62639 | 11.03403 | 3686 ft | 199 kts | 116° |
| 2026-05-04 17:44 | 44.62038 | 11.05096 | 3476 ft | 191 kts | 115° |
| 2026-05-04 17:45 | 44.61458 | 11.06739 | 3272 ft | 184 kts | 116° |
| 2026-05-04 17:45 | 44.60896 | 11.08328 | 3084 ft | 181 kts | 115° |
| 2026-05-04 17:45 | 44.60331 | 11.09922 | 2894 ft | 183 kts | 115° |
| 2026-05-04 17:45 | 44.59764 | 11.11517 | 2692 ft | 182 kts | 115° |
| 2026-05-04 17:46 | 44.59200 | 11.13103 | 2462 ft | 179 kts | 116° |
| 2026-05-04 17:46 | 44.58664 | 11.14598 | 2229 ft | 170 kts | 116° |
| 2026-05-04 17:46 | 44.58139 | 11.16067 | 2011 ft | 168 kts | 115° |
| 2026-05-04 17:46 | 44.57611 | 11.17540 | 1811 ft | 171 kts | 115° |
| 2026-05-04 17:47 | 44.57083 | 11.19013 | 1602 ft | 167 kts | 116° |
| 2026-05-04 17:47 | 44.56564 | 11.20460 | 1336 ft | 162 kts | 117° |
| 2026-05-04 17:47 | 44.56070 | 11.21837 | 1126 ft | 158 kts | 118° |
| 2026-05-04 17:47 | 44.55578 | 11.23213 | 946 ft | 156 kts | 118° |
| 2026-05-04 17:48 | 44.55104 | 11.24582 | 664 ft | 155 kts | 118° |
| 2026-05-04 17:48 | 44.54625 | 11.25900 | 427 ft | 151 kts | 120° |
| 2026-05-04 17:48 | 44.54153 | 11.27179 | 247 ft | 148 kts | 119° |
| 2026-05-04 17:48 | 44.53691 | 11.28445 | 135 ft | 138 kts | 118° |
| 2026-05-04 17:49 | 44.53400 | 11.29180 | 132 ft | 16 kts | 173° |